sensor_id;sensor_type;location;lat;lon;timestamp;P1;durP1;ratioP1;P2;durP2;ratioP2
9420;SDS011;4749;51.398;5.466;2024-01-30T00:01:19;10.77;;;8.23;;
9420;SDS011;4749;51.398;5.466;2024-01-30T00:03:47;11.73;;;8.30;;
9420;SDS011;4749;51.398;5.466;2024-01-30T00:06:14;12.20;;;8.67;;
9420;SDS011;4749;51.398;5.466;2024-01-30T00:08:44;10.70;;;8.23;;
9420;SDS011;4749;51.398;5.466;2024-01-30T00:11:15;14.97;;;8.83;;
9420;SDS011;4749;51.398;5.466;2024-01-30T00:13:43;12.40;;;8.30;;
9420;SDS011;4749;51.398;5.466;2024-01-30T00:16:19;11.30;;;8.60;;
9420;SDS011;4749;51.398;5.466;2024-01-30T00:18:48;12.30;;;9.23;;
9420;SDS011;4749;51.398;5.466;2024-01-30T00:21:15;11.40;;;8.43;;
9420;SDS011;4749;51.398;5.466;2024-01-30T00:23:42;11.03;;;8.63;;
9420;SDS011;4749;51.398;5.466;2024-01-30T00:26:10;14.57;;;9.07;;
9420;SDS011;4749;51.398;5.466;2024-01-30T00:28:38;12.07;;;8.73;;
9420;SDS011;4749;51.398;5.466;2024-01-30T00:31:05;13.73;;;9.07;;
9420;SDS011;4749;51.398;5.466;2024-01-30T00:33:32;12.17;;;8.87;;
9420;SDS011;4749;51.398;5.466;2024-01-30T00:36:00;11.50;;;8.97;;
9420;SDS011;4749;51.398;5.466;2024-01-30T00:38:27;9.67;;;8.23;;
9420;SDS011;4749;51.398;5.466;2024-01-30T00:40:54;13.90;;;9.23;;
9420;SDS011;4749;51.398;5.466;2024-01-30T00:43:21;11.70;;;8.40;;
9420;SDS011;4749;51.398;5.466;2024-01-30T00:45:48;12.63;;;8.80;;
9420;SDS011;4749;51.398;5.466;2024-01-30T00:48:17;12.53;;;8.67;;
9420;SDS011;4749;51.398;5.466;2024-01-30T00:50:44;11.33;;;8.17;;
9420;SDS011;4749;51.398;5.466;2024-01-30T00:53:11;12.43;;;9.13;;
9420;SDS011;4749;51.398;5.466;2024-01-30T00:55:39;14.43;;;9.37;;
9420;SDS011;4749;51.398;5.466;2024-01-30T00:58:06;13.17;;;9.20;;
9420;SDS011;4749;51.398;5.466;2024-01-30T01:00:33;11.67;;;8.60;;
9420;SDS011;4749;51.398;5.466;2024-01-30T01:03:01;13.53;;;8.83;;
9420;SDS011;4749;51.398;5.466;2024-01-30T01:05:29;14.23;;;8.87;;
9420;SDS011;4749;51.398;5.466;2024-01-30T01:07:56;11.20;;;8.33;;
9420;SDS011;4749;51.398;5.466;2024-01-30T01:10:23;12.57;;;9.00;;
9420;SDS011;4749;51.398;5.466;2024-01-30T01:12:51;11.77;;;7.93;;
9420;SDS011;4749;51.398;5.466;2024-01-30T01:15:18;11.83;;;8.27;;
9420;SDS011;4749;51.398;5.466;2024-01-30T01:17:45;10.27;;;7.70;;
9420;SDS011;4749;51.398;5.466;2024-01-30T01:20:12;15.77;;;8.73;;
9420;SDS011;4749;51.398;5.466;2024-01-30T01:22:39;12.03;;;7.80;;
9420;SDS011;4749;51.398;5.466;2024-01-30T01:25:08;11.77;;;8.73;;
9420;SDS011;4749;51.398;5.466;2024-01-30T01:27:36;11.87;;;8.20;;
9420;SDS011;4749;51.398;5.466;2024-01-30T01:30:08;12.43;;;8.63;;
9420;SDS011;4749;51.398;5.466;2024-01-30T01:32:38;11.53;;;8.67;;
9420;SDS011;4749;51.398;5.466;2024-01-30T01:35:11;9.83;;;7.73;;
9420;SDS011;4749;51.398;5.466;2024-01-30T01:37:38;14.10;;;8.07;;
9420;SDS011;4749;51.398;5.466;2024-01-30T01:40:06;13.60;;;8.23;;
9420;SDS011;4749;51.398;5.466;2024-01-30T01:42:34;13.13;;;7.97;;
9420;SDS011;4749;51.398;5.466;2024-01-30T01:45:02;10.87;;;7.80;;
9420;SDS011;4749;51.398;5.466;2024-01-30T01:47:29;13.97;;;8.53;;
9420;SDS011;4749;51.398;5.466;2024-01-30T01:49:57;12.47;;;7.60;;
9420;SDS011;4749;51.398;5.466;2024-01-30T01:52:24;14.47;;;8.00;;
9420;SDS011;4749;51.398;5.466;2024-01-30T01:54:52;10.03;;;7.63;;
9420;SDS011;4749;51.398;5.466;2024-01-30T01:57:19;13.20;;;7.83;;
9420;SDS011;4749;51.398;5.466;2024-01-30T01:59:46;10.23;;;7.13;;
9420;SDS011;4749;51.398;5.466;2024-01-30T02:02:14;10.97;;;7.57;;
9420;SDS011;4749;51.398;5.466;2024-01-30T02:04:43;13.47;;;7.40;;
9420;SDS011;4749;51.398;5.466;2024-01-30T02:07:11;11.90;;;7.80;;
9420;SDS011;4749;51.398;5.466;2024-01-30T02:09:38;10.63;;;7.13;;
9420;SDS011;4749;51.398;5.466;2024-01-30T02:12:05;13.13;;;8.00;;
9420;SDS011;4749;51.398;5.466;2024-01-30T02:14:33;13.57;;;8.57;;
9420;SDS011;4749;51.398;5.466;2024-01-30T02:17:10;13.40;;;7.50;;
9420;SDS011;4749;51.398;5.466;2024-01-30T02:19:37;11.40;;;7.93;;
9420;SDS011;4749;51.398;5.466;2024-01-30T02:22:05;11.13;;;7.50;;
9420;SDS011;4749;51.398;5.466;2024-01-30T02:24:33;10.90;;;7.70;;
9420;SDS011;4749;51.398;5.466;2024-01-30T02:27:00;9.27;;;7.00;;
9420;SDS011;4749;51.398;5.466;2024-01-30T02:29:28;10.57;;;7.97;;
9420;SDS011;4749;51.398;5.466;2024-01-30T02:31:55;10.03;;;7.90;;
9420;SDS011;4749;51.398;5.466;2024-01-30T02:34:23;11.03;;;7.80;;
9420;SDS011;4749;51.398;5.466;2024-01-30T02:36:51;10.70;;;7.97;;
9420;SDS011;4749;51.398;5.466;2024-01-30T02:39:18;11.63;;;7.83;;
9420;SDS011;4749;51.398;5.466;2024-01-30T02:41:46;11.53;;;7.70;;
9420;SDS011;4749;51.398;5.466;2024-01-30T02:44:13;12.53;;;7.00;;
9420;SDS011;4749;51.398;5.466;2024-01-30T02:46:40;12.30;;;7.83;;
9420;SDS011;4749;51.398;5.466;2024-01-30T02:49:07;10.87;;;7.27;;
9420;SDS011;4749;51.398;5.466;2024-01-30T02:51:34;10.17;;;7.37;;
9420;SDS011;4749;51.398;5.466;2024-01-30T02:54:02;12.37;;;7.60;;
9420;SDS011;4749;51.398;5.466;2024-01-30T02:56:29;10.77;;;7.47;;
9420;SDS011;4749;51.398;5.466;2024-01-30T02:58:56;8.53;;;6.80;;
9420;SDS011;4749;51.398;5.466;2024-01-30T03:01:23;11.37;;;7.63;;
9420;SDS011;4749;51.398;5.466;2024-01-30T03:03:51;11.93;;;7.20;;
9420;SDS011;4749;51.398;5.466;2024-01-30T03:06:18;12.57;;;7.60;;
9420;SDS011;4749;51.398;5.466;2024-01-30T03:08:46;9.20;;;7.00;;
9420;SDS011;4749;51.398;5.466;2024-01-30T03:11:13;12.23;;;7.20;;
9420;SDS011;4749;51.398;5.466;2024-01-30T03:13:40;10.23;;;7.57;;
9420;SDS011;4749;51.398;5.466;2024-01-30T03:16:08;9.13;;;6.57;;
9420;SDS011;4749;51.398;5.466;2024-01-30T03:18:35;9.33;;;6.70;;
9420;SDS011;4749;51.398;5.466;2024-01-30T03:21:02;8.83;;;6.57;;
9420;SDS011;4749;51.398;5.466;2024-01-30T03:23:29;9.83;;;6.63;;
9420;SDS011;4749;51.398;5.466;2024-01-30T03:25:58;11.40;;;7.40;;
9420;SDS011;4749;51.398;5.466;2024-01-30T03:28:25;7.50;;;6.37;;
9420;SDS011;4749;51.398;5.466;2024-01-30T03:30:52;10.20;;;7.10;;
9420;SDS011;4749;51.398;5.466;2024-01-30T03:33:20;9.80;;;6.70;;
9420;SDS011;4749;51.398;5.466;2024-01-30T03:35:47;10.43;;;7.30;;
9420;SDS011;4749;51.398;5.466;2024-01-30T03:38:14;9.90;;;6.90;;
9420;SDS011;4749;51.398;5.466;2024-01-30T03:40:41;12.33;;;7.57;;
9420;SDS011;4749;51.398;5.466;2024-01-30T03:43:08;12.10;;;7.30;;
9420;SDS011;4749;51.398;5.466;2024-01-30T03:45:36;9.37;;;7.00;;
9420;SDS011;4749;51.398;5.466;2024-01-30T03:48:03;10.33;;;7.30;;
9420;SDS011;4749;51.398;5.466;2024-01-30T03:50:30;9.07;;;6.47;;
9420;SDS011;4749;51.398;5.466;2024-01-30T03:52:58;9.33;;;7.00;;
9420;SDS011;4749;51.398;5.466;2024-01-30T03:55:25;7.90;;;6.00;;
9420;SDS011;4749;51.398;5.466;2024-01-30T03:57:52;9.63;;;6.47;;
9420;SDS011;4749;51.398;5.466;2024-01-30T04:00:19;7.17;;;6.30;;
9420;SDS011;4749;51.398;5.466;2024-01-30T04:02:46;9.20;;;6.63;;
9420;SDS011;4749;51.398;5.466;2024-01-30T04:05:14;7.50;;;6.27;;
9420;SDS011;4749;51.398;5.466;2024-01-30T04:07:41;7.97;;;6.27;;
9420;SDS011;4749;51.398;5.466;2024-01-30T04:10:09;10.37;;;6.40;;
9420;SDS011;4749;51.398;5.466;2024-01-30T04:12:36;8.70;;;6.53;;
9420;SDS011;4749;51.398;5.466;2024-01-30T04:15:04;9.40;;;7.30;;
9420;SDS011;4749;51.398;5.466;2024-01-30T04:17:31;9.03;;;6.77;;
9420;SDS011;4749;51.398;5.466;2024-01-30T04:19:59;8.90;;;6.00;;
9420;SDS011;4749;51.398;5.466;2024-01-30T04:22:26;9.53;;;6.23;;
9420;SDS011;4749;51.398;5.466;2024-01-30T04:24:54;9.80;;;6.53;;
9420;SDS011;4749;51.398;5.466;2024-01-30T04:27:21;9.70;;;6.10;;
9420;SDS011;4749;51.398;5.466;2024-01-30T04:29:48;7.83;;;5.40;;
9420;SDS011;4749;51.398;5.466;2024-01-30T04:32:15;9.40;;;6.73;;
9420;SDS011;4749;51.398;5.466;2024-01-30T04:34:43;7.33;;;5.17;;
9420;SDS011;4749;51.398;5.466;2024-01-30T04:37:10;10.43;;;6.00;;
9420;SDS011;4749;51.398;5.466;2024-01-30T04:39:37;9.10;;;6.10;;
9420;SDS011;4749;51.398;5.466;2024-01-30T04:42:04;8.33;;;5.47;;
9420;SDS011;4749;51.398;5.466;2024-01-30T04:44:35;7.93;;;5.47;;
9420;SDS011;4749;51.398;5.466;2024-01-30T04:47:02;7.53;;;5.63;;
9420;SDS011;4749;51.398;5.466;2024-01-30T04:49:31;6.63;;;5.17;;
9420;SDS011;4749;51.398;5.466;2024-01-30T04:51:59;7.63;;;5.07;;
9420;SDS011;4749;51.398;5.466;2024-01-30T04:54:26;7.77;;;5.20;;
9420;SDS011;4749;51.398;5.466;2024-01-30T04:56:53;6.13;;;5.13;;
9420;SDS011;4749;51.398;5.466;2024-01-30T04:59:20;9.70;;;5.30;;
9420;SDS011;4749;51.398;5.466;2024-01-30T05:01:47;7.17;;;5.23;;
9420;SDS011;4749;51.398;5.466;2024-01-30T05:04:14;6.17;;;4.83;;
9420;SDS011;4749;51.398;5.466;2024-01-30T05:06:43;7.60;;;4.87;;
9420;SDS011;4749;51.398;5.466;2024-01-30T05:09:10;7.53;;;5.40;;
9420;SDS011;4749;51.398;5.466;2024-01-30T05:11:38;5.80;;;4.57;;
9420;SDS011;4749;51.398;5.466;2024-01-30T05:14:08;6.73;;;5.07;;
9420;SDS011;4749;51.398;5.466;2024-01-30T05:16:35;6.43;;;5.13;;
9420;SDS011;4749;51.398;5.466;2024-01-30T05:19:03;9.77;;;4.90;;
9420;SDS011;4749;51.398;5.466;2024-01-30T05:21:30;7.57;;;4.63;;
9420;SDS011;4749;51.398;5.466;2024-01-30T05:23:57;7.07;;;4.73;;
9420;SDS011;4749;51.398;5.466;2024-01-30T05:26:24;7.07;;;4.67;;
9420;SDS011;4749;51.398;5.466;2024-01-30T05:28:52;7.70;;;5.20;;
9420;SDS011;4749;51.398;5.466;2024-01-30T05:31:19;8.07;;;4.50;;
9420;SDS011;4749;51.398;5.466;2024-01-30T05:33:47;6.20;;;4.80;;
9420;SDS011;4749;51.398;5.466;2024-01-30T05:36:15;8.00;;;5.37;;
9420;SDS011;4749;51.398;5.466;2024-01-30T05:38:42;7.13;;;4.97;;
9420;SDS011;4749;51.398;5.466;2024-01-30T05:41:10;8.40;;;5.27;;
9420;SDS011;4749;51.398;5.466;2024-01-30T05:43:37;6.93;;;4.77;;
9420;SDS011;4749;51.398;5.466;2024-01-30T05:46:04;6.93;;;4.67;;
9420;SDS011;4749;51.398;5.466;2024-01-30T05:48:32;6.50;;;4.80;;
9420;SDS011;4749;51.398;5.466;2024-01-30T05:51:01;6.10;;;4.63;;
9420;SDS011;4749;51.398;5.466;2024-01-30T05:53:30;8.40;;;4.87;;
9420;SDS011;4749;51.398;5.466;2024-01-30T05:55:57;6.87;;;4.50;;
9420;SDS011;4749;51.398;5.466;2024-01-30T05:58:25;5.00;;;4.50;;
9420;SDS011;4749;51.398;5.466;2024-01-30T06:00:52;7.90;;;4.70;;
9420;SDS011;4749;51.398;5.466;2024-01-30T06:03:20;8.43;;;4.30;;
9420;SDS011;4749;51.398;5.466;2024-01-30T06:05:48;8.10;;;5.27;;
9420;SDS011;4749;51.398;5.466;2024-01-30T06:08:15;5.70;;;4.17;;
9420;SDS011;4749;51.398;5.466;2024-01-30T06:10:42;5.23;;;4.03;;
9420;SDS011;4749;51.398;5.466;2024-01-30T06:13:09;6.97;;;4.43;;
9420;SDS011;4749;51.398;5.466;2024-01-30T06:15:36;6.43;;;4.40;;
9420;SDS011;4749;51.398;5.466;2024-01-30T06:18:04;6.57;;;4.30;;
9420;SDS011;4749;51.398;5.466;2024-01-30T06:20:31;6.63;;;4.80;;
9420;SDS011;4749;51.398;5.466;2024-01-30T06:22:58;7.17;;;4.47;;
9420;SDS011;4749;51.398;5.466;2024-01-30T06:25:26;9.20;;;4.87;;
9420;SDS011;4749;51.398;5.466;2024-01-30T06:27:53;7.13;;;4.50;;
9420;SDS011;4749;51.398;5.466;2024-01-30T06:30:20;7.53;;;4.33;;
9420;SDS011;4749;51.398;5.466;2024-01-30T06:32:47;6.93;;;4.53;;
9420;SDS011;4749;51.398;5.466;2024-01-30T06:35:15;9.37;;;5.17;;
9420;SDS011;4749;51.398;5.466;2024-01-30T06:37:43;6.30;;;4.60;;
9420;SDS011;4749;51.398;5.466;2024-01-30T06:40:11;7.53;;;4.47;;
9420;SDS011;4749;51.398;5.466;2024-01-30T06:42:39;5.97;;;4.27;;
9420;SDS011;4749;51.398;5.466;2024-01-30T06:45:06;6.83;;;4.40;;
9420;SDS011;4749;51.398;5.466;2024-01-30T06:47:34;8.03;;;4.53;;
9420;SDS011;4749;51.398;5.466;2024-01-30T06:50:01;8.57;;;4.53;;
9420;SDS011;4749;51.398;5.466;2024-01-30T06:52:30;7.17;;;4.70;;
9420;SDS011;4749;51.398;5.466;2024-01-30T06:54:57;8.17;;;4.60;;
9420;SDS011;4749;51.398;5.466;2024-01-30T06:57:24;8.10;;;4.83;;
9420;SDS011;4749;51.398;5.466;2024-01-30T06:59:57;7.93;;;4.70;;
9420;SDS011;4749;51.398;5.466;2024-01-30T07:02:24;7.13;;;4.93;;
9420;SDS011;4749;51.398;5.466;2024-01-30T07:04:51;5.50;;;4.33;;
9420;SDS011;4749;51.398;5.466;2024-01-30T07:07:19;6.33;;;4.57;;
9420;SDS011;4749;51.398;5.466;2024-01-30T07:09:46;6.47;;;5.20;;
9420;SDS011;4749;51.398;5.466;2024-01-30T07:12:16;7.63;;;5.27;;
9420;SDS011;4749;51.398;5.466;2024-01-30T07:14:43;6.07;;;4.80;;
9420;SDS011;4749;51.398;5.466;2024-01-30T07:17:10;7.47;;;5.17;;
9420;SDS011;4749;51.398;5.466;2024-01-30T07:19:37;6.17;;;4.77;;
9420;SDS011;4749;51.398;5.466;2024-01-30T07:22:05;7.27;;;4.93;;
9420;SDS011;4749;51.398;5.466;2024-01-30T07:24:32;7.97;;;4.90;;
9420;SDS011;4749;51.398;5.466;2024-01-30T07:26:59;7.07;;;5.17;;
9420;SDS011;4749;51.398;5.466;2024-01-30T07:29:27;8.67;;;5.63;;
9420;SDS011;4749;51.398;5.466;2024-01-30T07:31:54;7.67;;;4.73;;
9420;SDS011;4749;51.398;5.466;2024-01-30T07:34:21;6.50;;;4.60;;
9420;SDS011;4749;51.398;5.466;2024-01-30T07:36:48;8.93;;;5.00;;
9420;SDS011;4749;51.398;5.466;2024-01-30T07:39:18;8.13;;;5.00;;
9420;SDS011;4749;51.398;5.466;2024-01-30T07:41:46;7.87;;;5.13;;
9420;SDS011;4749;51.398;5.466;2024-01-30T07:44:13;9.17;;;5.43;;
9420;SDS011;4749;51.398;5.466;2024-01-30T07:46:40;7.00;;;4.77;;
9420;SDS011;4749;51.398;5.466;2024-01-30T07:49:07;7.13;;;5.00;;
9420;SDS011;4749;51.398;5.466;2024-01-30T07:51:34;8.83;;;5.77;;
9420;SDS011;4749;51.398;5.466;2024-01-30T07:54:01;8.97;;;5.73;;
9420;SDS011;4749;51.398;5.466;2024-01-30T07:56:29;7.27;;;5.27;;
9420;SDS011;4749;51.398;5.466;2024-01-30T07:58:56;9.13;;;5.17;;
9420;SDS011;4749;51.398;5.466;2024-01-30T08:01:23;9.13;;;5.40;;
9420;SDS011;4749;51.398;5.466;2024-01-30T08:03:50;9.33;;;5.60;;
9420;SDS011;4749;51.398;5.466;2024-01-30T08:06:17;7.20;;;5.67;;
9420;SDS011;4749;51.398;5.466;2024-01-30T08:08:45;10.97;;;5.50;;
9420;SDS011;4749;51.398;5.466;2024-01-30T08:11:12;7.87;;;5.60;;
9420;SDS011;4749;51.398;5.466;2024-01-30T08:13:39;8.10;;;5.90;;
9420;SDS011;4749;51.398;5.466;2024-01-30T08:16:06;7.87;;;5.70;;
9420;SDS011;4749;51.398;5.466;2024-01-30T08:18:37;9.37;;;5.93;;
9420;SDS011;4749;51.398;5.466;2024-01-30T08:21:05;7.77;;;5.97;;
9420;SDS011;4749;51.398;5.466;2024-01-30T08:23:32;10.40;;;6.13;;
9420;SDS011;4749;51.398;5.466;2024-01-30T08:25:59;9.87;;;5.60;;
9420;SDS011;4749;51.398;5.466;2024-01-30T08:28:26;9.90;;;6.70;;
9420;SDS011;4749;51.398;5.466;2024-01-30T08:30:54;9.37;;;6.20;;
9420;SDS011;4749;51.398;5.466;2024-01-30T08:33:21;8.33;;;5.60;;
9420;SDS011;4749;51.398;5.466;2024-01-30T08:35:48;10.97;;;6.37;;
9420;SDS011;4749;51.398;5.466;2024-01-30T08:38:16;8.03;;;6.07;;
9420;SDS011;4749;51.398;5.466;2024-01-30T08:40:43;8.73;;;6.47;;
9420;SDS011;4749;51.398;5.466;2024-01-30T08:43:10;9.93;;;6.10;;
9420;SDS011;4749;51.398;5.466;2024-01-30T08:45:38;9.80;;;5.90;;
9420;SDS011;4749;51.398;5.466;2024-01-30T08:48:05;8.20;;;6.10;;
9420;SDS011;4749;51.398;5.466;2024-01-30T08:50:33;8.90;;;6.00;;
9420;SDS011;4749;51.398;5.466;2024-01-30T08:53:00;12.97;;;6.67;;
9420;SDS011;4749;51.398;5.466;2024-01-30T08:55:27;11.23;;;5.87;;
9420;SDS011;4749;51.398;5.466;2024-01-30T08:57:55;9.13;;;6.73;;
9420;SDS011;4749;51.398;5.466;2024-01-30T09:00:22;9.40;;;5.77;;
9420;SDS011;4749;51.398;5.466;2024-01-30T09:02:50;12.50;;;6.33;;
9420;SDS011;4749;51.398;5.466;2024-01-30T09:05:17;9.40;;;6.03;;
9420;SDS011;4749;51.398;5.466;2024-01-30T09:07:44;9.70;;;6.43;;
9420;SDS011;4749;51.398;5.466;2024-01-30T09:10:12;8.23;;;5.80;;
9420;SDS011;4749;51.398;5.466;2024-01-30T09:12:42;11.60;;;6.90;;
9420;SDS011;4749;51.398;5.466;2024-01-30T09:15:09;8.47;;;5.97;;
9420;SDS011;4749;51.398;5.466;2024-01-30T09:17:37;11.65;;;6.55;;
9420;SDS011;4749;51.398;5.466;2024-01-30T09:20:04;8.47;;;6.20;;
9420;SDS011;4749;51.398;5.466;2024-01-30T09:22:32;10.35;;;5.68;;
9420;SDS011;4749;51.398;5.466;2024-01-30T09:24:59;10.57;;;6.10;;
9420;SDS011;4749;51.398;5.466;2024-01-30T09:27:28;9.47;;;5.40;;
9420;SDS011;4749;51.398;5.466;2024-01-30T09:29:55;12.60;;;6.43;;
9420;SDS011;4749;51.398;5.466;2024-01-30T09:32:22;8.88;;;5.95;;
9420;SDS011;4749;51.398;5.466;2024-01-30T09:34:49;9.15;;;5.78;;
9420;SDS011;4749;51.398;5.466;2024-01-30T09:37:17;10.90;;;5.88;;
9420;SDS011;4749;51.398;5.466;2024-01-30T09:39:44;8.32;;;6.10;;
9420;SDS011;4749;51.398;5.466;2024-01-30T09:42:16;11.25;;;6.55;;
9420;SDS011;4749;51.398;5.466;2024-01-30T09:44:53;10.20;;;6.38;;
9420;SDS011;4749;51.398;5.466;2024-01-30T09:47:21;11.35;;;5.95;;
9420;SDS011;4749;51.398;5.466;2024-01-30T09:49:48;11.15;;;6.03;;
9420;SDS011;4749;51.398;5.466;2024-01-30T09:52:17;8.75;;;5.72;;
9420;SDS011;4749;51.398;5.466;2024-01-30T09:54:45;11.80;;;5.93;;
9420;SDS011;4749;51.398;5.466;2024-01-30T09:57:13;9.88;;;6.43;;
9420;SDS011;4749;51.398;5.466;2024-01-30T09:59:41;10.32;;;5.78;;
9420;SDS011;4749;51.398;5.466;2024-01-30T10:02:10;10.07;;;6.40;;
9420;SDS011;4749;51.398;5.466;2024-01-30T10:04:37;11.63;;;6.43;;
9420;SDS011;4749;51.398;5.466;2024-01-30T10:07:04;12.13;;;6.50;;
9420;SDS011;4749;51.398;5.466;2024-01-30T10:09:34;12.75;;;7.07;;
9420;SDS011;4749;51.398;5.466;2024-01-30T10:12:01;10.07;;;6.47;;
9420;SDS011;4749;51.398;5.466;2024-01-30T10:14:30;12.65;;;6.53;;
9420;SDS011;4749;51.398;5.466;2024-01-30T10:16:57;9.75;;;6.25;;
9420;SDS011;4749;51.398;5.466;2024-01-30T10:19:25;11.63;;;6.78;;
9420;SDS011;4749;51.398;5.466;2024-01-30T10:21:53;10.75;;;6.28;;
9420;SDS011;4749;51.398;5.466;2024-01-30T10:24:23;11.00;;;6.65;;
9420;SDS011;4749;51.398;5.466;2024-01-30T10:26:51;8.57;;;6.13;;
9420;SDS011;4749;51.398;5.466;2024-01-30T10:29:19;11.20;;;6.47;;
9420;SDS011;4749;51.398;5.466;2024-01-30T10:31:59;13.82;;;6.43;;
9420;SDS011;4749;51.398;5.466;2024-01-30T10:34:31;13.05;;;6.70;;
9420;SDS011;4749;51.398;5.466;2024-01-30T10:39:32;14.13;;;7.18;;
9420;SDS011;4749;51.398;5.466;2024-01-30T10:42:05;10.73;;;6.15;;
9420;SDS011;4749;51.398;5.466;2024-01-30T10:44:36;11.10;;;6.32;;
9420;SDS011;4749;51.398;5.466;2024-01-30T10:47:26;10.50;;;7.10;;
9420;SDS011;4749;51.398;5.466;2024-01-30T10:49:55;12.93;;;6.63;;
9420;SDS011;4749;51.398;5.466;2024-01-30T10:52:24;10.52;;;6.88;;
9420;SDS011;4749;51.398;5.466;2024-01-30T10:54:53;12.95;;;7.13;;
9420;SDS011;4749;51.398;5.466;2024-01-30T10:57:28;14.77;;;7.55;;
9420;SDS011;4749;51.398;5.466;2024-01-30T10:59:59;13.32;;;6.57;;
9420;SDS011;4749;51.398;5.466;2024-01-30T11:02:32;11.00;;;6.53;;
9420;SDS011;4749;51.398;5.466;2024-01-30T11:05:00;13.00;;;6.78;;
9420;SDS011;4749;51.398;5.466;2024-01-30T11:07:28;9.77;;;6.63;;
9420;SDS011;4749;51.398;5.466;2024-01-30T11:12:29;8.23;;;6.53;;
9420;SDS011;4749;51.398;5.466;2024-01-30T11:15:07;11.30;;;6.88;;
9420;SDS011;4749;51.398;5.466;2024-01-30T11:17:54;10.63;;;6.90;;
9420;SDS011;4749;51.398;5.466;2024-01-30T11:20:30;9.25;;;6.65;;
9420;SDS011;4749;51.398;5.466;2024-01-30T11:22:58;11.45;;;7.07;;
9420;SDS011;4749;51.398;5.466;2024-01-30T11:25:28;11.32;;;6.97;;
9420;SDS011;4749;51.398;5.466;2024-01-30T11:27:58;12.82;;;7.20;;
9420;SDS011;4749;51.398;5.466;2024-01-30T11:30:29;10.02;;;6.55;;
9420;SDS011;4749;51.398;5.466;2024-01-30T11:35:38;8.55;;;6.00;;
9420;SDS011;4749;51.398;5.466;2024-01-30T11:38:11;10.70;;;6.30;;
9420;SDS011;4749;51.398;5.466;2024-01-30T11:40:40;13.88;;;6.40;;
9420;SDS011;4749;51.398;5.466;2024-01-30T11:43:08;7.47;;;5.40;;
9420;SDS011;4749;51.398;5.466;2024-01-30T11:45:36;11.00;;;5.78;;
9420;SDS011;4749;51.398;5.466;2024-01-30T11:48:04;10.00;;;5.38;;
9420;SDS011;4749;51.398;5.466;2024-01-30T11:50:33;8.68;;;5.00;;
9420;SDS011;4749;51.398;5.466;2024-01-30T11:53:01;8.57;;;4.97;;
9420;SDS011;4749;51.398;5.466;2024-01-30T11:55:29;7.90;;;4.82;;
9420;SDS011;4749;51.398;5.466;2024-01-30T11:58:01;9.02;;;4.47;;
9420;SDS011;4749;51.398;5.466;2024-01-30T12:00:30;6.43;;;4.68;;
9420;SDS011;4749;51.398;5.466;2024-01-30T12:03:02;5.80;;;4.20;;
9420;SDS011;4749;51.398;5.466;2024-01-30T12:05:31;7.30;;;4.20;;
9420;SDS011;4749;51.398;5.466;2024-01-30T12:07:59;8.13;;;3.80;;
9420;SDS011;4749;51.398;5.466;2024-01-30T12:10:28;7.78;;;3.80;;
9420;SDS011;4749;51.398;5.466;2024-01-30T12:12:56;7.07;;;3.33;;
9420;SDS011;4749;51.398;5.466;2024-01-30T12:15:24;5.00;;;3.05;;
9420;SDS011;4749;51.398;5.466;2024-01-30T12:17:52;10.98;;;3.50;;
9420;SDS011;4749;51.398;5.466;2024-01-30T12:20:29;7.22;;;3.53;;
9420;SDS011;4749;51.398;5.466;2024-01-30T12:23:00;7.30;;;3.00;;
9420;SDS011;4749;51.398;5.466;2024-01-30T12:25:27;6.10;;;2.97;;
9420;SDS011;4749;51.398;5.466;2024-01-30T12:27:54;6.50;;;3.00;;
9420;SDS011;4749;51.398;5.466;2024-01-30T12:30:22;7.22;;;4.13;;
9420;SDS011;4749;51.398;5.466;2024-01-30T12:32:50;9.18;;;4.97;;
9420;SDS011;4749;51.398;5.466;2024-01-30T12:35:19;8.60;;;5.18;;
9420;SDS011;4749;51.398;5.466;2024-01-30T12:37:48;10.15;;;4.90;;
9420;SDS011;4749;51.398;5.466;2024-01-30T12:40:17;6.68;;;3.92;;
9420;SDS011;4749;51.398;5.466;2024-01-30T12:42:48;8.20;;;4.75;;
9420;SDS011;4749;51.398;5.466;2024-01-30T12:45:16;7.18;;;3.60;;
9420;SDS011;4749;51.398;5.466;2024-01-30T12:47:48;5.63;;;2.40;;
9420;SDS011;4749;51.398;5.466;2024-01-30T12:50:15;5.57;;;2.25;;
9420;SDS011;4749;51.398;5.466;2024-01-30T12:52:43;4.95;;;1.65;;
9420;SDS011;4749;51.398;5.466;2024-01-30T12:55:15;4.55;;;1.42;;
9420;SDS011;4749;51.398;5.466;2024-01-30T12:57:43;7.47;;;1.25;;
9420;SDS011;4749;51.398;5.466;2024-01-30T13:00:10;3.22;;;1.20;;
9420;SDS011;4749;51.398;5.466;2024-01-30T13:02:38;3.95;;;1.52;;
9420;SDS011;4749;51.398;5.466;2024-01-30T13:05:05;5.65;;;0.95;;
9420;SDS011;4749;51.398;5.466;2024-01-30T13:07:34;2.65;;;0.95;;
9420;SDS011;4749;51.398;5.466;2024-01-30T13:10:02;1.98;;;0.73;;
9420;SDS011;4749;51.398;5.466;2024-01-30T13:12:31;3.17;;;0.82;;
9420;SDS011;4749;51.398;5.466;2024-01-30T13:14:59;2.53;;;0.80;;
9420;SDS011;4749;51.398;5.466;2024-01-30T13:17:31;3.05;;;0.70;;
9420;SDS011;4749;51.398;5.466;2024-01-30T13:19:59;1.83;;;0.57;;
9420;SDS011;4749;51.398;5.466;2024-01-30T13:22:36;2.83;;;0.90;;
9420;SDS011;4749;51.398;5.466;2024-01-30T13:25:05;2.35;;;0.90;;
9420;SDS011;4749;51.398;5.466;2024-01-30T13:27:35;3.17;;;0.95;;
9420;SDS011;4749;51.398;5.466;2024-01-30T13:30:04;2.17;;;0.73;;
9420;SDS011;4749;51.398;5.466;2024-01-30T13:32:33;2.80;;;0.95;;
9420;SDS011;4749;51.398;5.466;2024-01-30T13:35:01;3.83;;;0.93;;
9420;SDS011;4749;51.398;5.466;2024-01-30T13:37:28;2.80;;;0.70;;
9420;SDS011;4749;51.398;5.466;2024-01-30T13:39:56;1.33;;;0.65;;
9420;SDS011;4749;51.398;5.466;2024-01-30T13:42:23;2.25;;;0.68;;
9420;SDS011;4749;51.398;5.466;2024-01-30T13:44:50;2.45;;;0.77;;
9420;SDS011;4749;51.398;5.466;2024-01-30T13:47:17;5.30;;;0.90;;
9420;SDS011;4749;51.398;5.466;2024-01-30T13:49:47;2.63;;;0.85;;
9420;SDS011;4749;51.398;5.466;2024-01-30T13:52:15;1.67;;;0.73;;
9420;SDS011;4749;51.398;5.466;2024-01-30T13:54:42;2.20;;;0.63;;
9420;SDS011;4749;51.398;5.466;2024-01-30T13:57:09;4.45;;;1.23;;
9420;SDS011;4749;51.398;5.466;2024-01-30T13:59:37;5.40;;;0.90;;
9420;SDS011;4749;51.398;5.466;2024-01-30T14:02:05;3.25;;;0.88;;
9420;SDS011;4749;51.398;5.466;2024-01-30T14:04:34;4.90;;;0.95;;
9420;SDS011;4749;51.398;5.466;2024-01-30T14:07:04;2.65;;;0.98;;
9420;SDS011;4749;51.398;5.466;2024-01-30T14:09:32;2.92;;;0.90;;
9420;SDS011;4749;51.398;5.466;2024-01-30T14:12:00;1.67;;;0.60;;
9420;SDS011;4749;51.398;5.466;2024-01-30T14:14:27;2.28;;;0.80;;
9420;SDS011;4749;51.398;5.466;2024-01-30T14:16:55;3.10;;;1.10;;
9420;SDS011;4749;51.398;5.466;2024-01-30T14:19:22;4.00;;;0.80;;
9420;SDS011;4749;51.398;5.466;2024-01-30T14:21:49;1.50;;;0.65;;
9420;SDS011;4749;51.398;5.466;2024-01-30T14:24:16;2.08;;;0.80;;
9420;SDS011;4749;51.398;5.466;2024-01-30T14:26:44;1.17;;;0.60;;
9420;SDS011;4749;51.398;5.466;2024-01-30T14:29:11;4.65;;;0.90;;
9420;SDS011;4749;51.398;5.466;2024-01-30T14:31:38;4.10;;;0.80;;
9420;SDS011;4749;51.398;5.466;2024-01-30T14:34:05;3.97;;;0.85;;
9420;SDS011;4749;51.398;5.466;2024-01-30T14:36:33;4.05;;;0.80;;
9420;SDS011;4749;51.398;5.466;2024-01-30T14:39:00;1.92;;;0.80;;
9420;SDS011;4749;51.398;5.466;2024-01-30T14:41:27;2.83;;;0.93;;
9420;SDS011;4749;51.398;5.466;2024-01-30T14:43:54;3.17;;;0.70;;
9420;SDS011;4749;51.398;5.466;2024-01-30T14:46:22;3.28;;;0.90;;
9420;SDS011;4749;51.398;5.466;2024-01-30T14:48:50;3.38;;;1.00;;
9420;SDS011;4749;51.398;5.466;2024-01-30T14:51:21;2.13;;;0.90;;
9420;SDS011;4749;51.398;5.466;2024-01-30T14:53:48;2.95;;;0.88;;
9420;SDS011;4749;51.398;5.466;2024-01-30T14:56:15;3.30;;;1.20;;
9420;SDS011;4749;51.398;5.466;2024-01-30T14:58:43;5.18;;;1.10;;
9420;SDS011;4749;51.398;5.466;2024-01-30T15:01:11;3.13;;;1.13;;
9420;SDS011;4749;51.398;5.466;2024-01-30T15:03:38;5.53;;;0.90;;
9420;SDS011;4749;51.398;5.466;2024-01-30T15:06:06;6.13;;;1.40;;
9420;SDS011;4749;51.398;5.466;2024-01-30T15:08:34;3.77;;;1.47;;
9420;SDS011;4749;51.398;5.466;2024-01-30T15:11:01;5.20;;;1.17;;
9420;SDS011;4749;51.398;5.466;2024-01-30T15:13:30;3.60;;;1.83;;
9420;SDS011;4749;51.398;5.466;2024-01-30T15:15:58;6.22;;;2.33;;
9420;SDS011;4749;51.398;5.466;2024-01-30T15:18:26;5.03;;;1.70;;
9420;SDS011;4749;51.398;5.466;2024-01-30T15:20:53;4.32;;;2.25;;
9420;SDS011;4749;51.398;5.466;2024-01-30T15:23:20;6.90;;;2.20;;